createdAt,value
2022-12-05T00:00:17.281Z,21.60
2022-12-05T00:02:39.447Z,22.00
2022-12-05T00:04:41.331Z,23.33
2022-12-05T00:06:44.005Z,23.48
2022-12-05T00:08:46.343Z,23.73
2022-12-05T00:10:48.121Z,23.45
2022-12-05T00:12:50.558Z,18.85
2022-12-05T00:14:52.382Z,21.92
2022-12-05T00:16:54.278Z,24.17
2022-12-05T00:18:59.211Z,24.10
2022-12-05T00:21:00.990Z,22.95
2022-12-05T00:23:02.859Z,23.73
2022-12-05T00:25:08.582Z,22.88
2022-12-05T00:27:10.343Z,24.60
2022-12-05T00:29:12.910Z,23.00
2022-12-05T00:33:19.287Z,23.10
2022-12-05T00:35:21.088Z,22.70
2022-12-05T00:37:23.769Z,23.83
2022-12-05T00:39:25.563Z,23.35
2022-12-05T00:41:28.949Z,22.83
2022-12-05T00:43:31.785Z,23.15
2022-12-05T00:45:33.737Z,24.58
2022-12-05T00:47:36.500Z,22.52
2022-12-05T00:49:38.720Z,23.92
2022-12-05T00:51:43.364Z,22.45
2022-12-05T00:53:47.061Z,23.83
2022-12-05T00:55:49.234Z,23.50
2022-12-05T00:57:50.970Z,22.85
2022-12-05T00:59:53.116Z,22.50
2022-12-05T01:01:54.996Z,23.02
2022-12-05T01:03:58.963Z,24.10
2022-12-05T01:06:01.616Z,22.52
2022-12-05T01:08:03.488Z,23.83
2022-12-05T01:10:06.155Z,24.00
2022-12-05T01:12:08.331Z,24.90
2022-12-05T01:14:12.454Z,22.17
2022-12-05T01:16:23.572Z,24.63
2022-12-05T01:18:27.293Z,23.50
2022-12-05T01:20:29.146Z,23.00
2022-12-05T01:22:31.344Z,23.50
2022-12-05T01:24:33.127Z,24.58
2022-12-05T01:26:35.613Z,24.15
2022-12-05T01:28:37.707Z,23.83
2022-12-05T01:30:41.201Z,23.83
2022-12-05T01:32:43.462Z,24.42
2022-12-05T01:34:45.208Z,24.17
2022-12-05T01:36:47.599Z,22.00
2022-12-05T01:38:50.330Z,25.55
2022-12-05T01:41:00.730Z,24.77
2022-12-05T01:43:03.955Z,26.15
2022-12-05T01:47:18.687Z,22.67
2022-12-05T01:49:27.813Z,24.90
2022-12-05T01:51:31.231Z,24.55
2022-12-05T01:53:33.960Z,25.55
2022-12-05T01:55:38.201Z,25.58
2022-12-05T01:57:41.428Z,26.80
2022-12-05T01:59:47.369Z,26.58
2022-12-05T02:01:49.902Z,27.08
2022-12-05T02:03:56.040Z,25.23
2022-12-05T02:05:58.920Z,27.80
2022-12-05T02:08:04.415Z,27.02
2022-12-05T02:10:07.199Z,25.75
2022-12-05T02:12:09.421Z,22.80
2022-12-05T02:14:21.904Z,26.00
2022-12-05T02:16:36.094Z,25.58
2022-12-05T02:18:49.443Z,25.08
2022-12-05T02:21:07.634Z,25.92
2022-12-05T02:24:00.989Z,23.15
2022-12-05T02:26:35.771Z,22.67
2022-12-05T02:29:03.527Z,25.23
2022-12-05T02:31:18.643Z,24.15
2022-12-05T02:33:44.537Z,25.73
2022-12-05T02:36:01.937Z,22.60
2022-12-05T02:38:12.789Z,23.40
2022-12-05T02:40:29.815Z,23.17
2022-12-05T02:42:45.746Z,23.08
2022-12-05T02:44:57.673Z,22.75
2022-12-05T02:47:00.929Z,24.10
2022-12-05T02:51:09.605Z,22.50
2022-12-05T02:53:14.454Z,23.60
2022-12-05T02:55:19.066Z,24.92
2022-12-05T02:57:22.201Z,24.42
2022-12-05T02:59:24.571Z,24.08
2022-12-05T03:01:30.276Z,22.43
2022-12-05T03:03:33.574Z,23.73
2022-12-05T03:05:47.306Z,24.98
2022-12-05T03:07:52.587Z,24.20
2022-12-05T03:10:00.829Z,22.55
2022-12-05T03:12:11.697Z,24.67
2022-12-05T03:14:21.679Z,23.10
2022-12-05T03:16:33.050Z,22.52
2022-12-05T03:18:44.221Z,20.73
2022-12-05T03:20:57.330Z,18.75
2022-12-05T03:23:18.618Z,20.27
2022-12-05T03:25:25.455Z,22.98
2022-12-05T03:27:49.684Z,21.48
2022-12-05T03:30:14.562Z,21.40
2022-12-05T03:32:35.637Z,21.85
2022-12-05T03:34:46.182Z,20.60
2022-12-05T03:36:52.426Z,22.10
2022-12-05T03:39:02.165Z,20.45
2022-12-05T03:41:19.898Z,21.25
2022-12-05T03:43:27.591Z,21.20
2022-12-05T03:45:41.476Z,21.35
2022-12-05T03:48:02.591Z,22.15
2022-12-05T03:50:14.555Z,20.77
2022-12-05T03:52:27.458Z,21.83
2022-12-05T03:56:46.245Z,21.20
2022-12-05T03:58:55.551Z,21.15
2022-12-05T04:01:01.528Z,21.20
2022-12-05T04:03:26.998Z,20.98
2022-12-05T04:05:49.866Z,19.85
2022-12-05T04:07:59.539Z,21.00
2022-12-05T04:10:12.308Z,21.55
2022-12-05T04:12:19.955Z,21.92
2022-12-05T04:14:31.119Z,19.80
2022-12-05T04:17:05.901Z,21.27
2022-12-05T04:20:04.326Z,22.60
2022-12-05T04:22:07.050Z,22.30
2022-12-05T04:24:42.686Z,22.02
2022-12-05T04:26:53.535Z,20.90
2022-12-05T04:29:02.719Z,22.08
2022-12-05T04:31:19.367Z,19.73
2022-12-05T04:33:41.006Z,21.63
2022-12-05T04:36:19.233Z,20.83
2022-12-05T04:38:30.059Z,22.95
2022-12-05T04:40:39.631Z,21.42
2022-12-05T04:42:43.175Z,22.27
2022-12-05T04:44:51.114Z,22.00
2022-12-05T04:46:56.962Z,22.23
2022-12-05T04:49:02.176Z,21.20
2022-12-05T04:51:06.340Z,21.60
2022-12-05T04:53:11.240Z,21.70
2022-12-05T04:55:20.659Z,22.10
2022-12-05T04:57:29.320Z,20.50
2022-12-05T04:59:31.319Z,20.15
2022-12-05T05:02:06.919Z,20.80
2022-12-05T05:04:15.002Z,20.67
2022-12-05T05:06:18.283Z,19.38
2022-12-05T05:08:25.865Z,18.58
2022-12-05T05:11:05.945Z,19.30
2022-12-05T05:13:07.781Z,20.08
2022-12-05T05:15:10.222Z,19.20
2022-12-05T05:17:12.077Z,20.00
2022-12-05T05:19:14.559Z,18.63
2022-12-05T05:21:28.526Z,19.17
2022-12-05T05:23:30.394Z,18.17
2022-12-05T05:25:32.642Z,18.85
2022-12-05T05:27:34.422Z,18.65
2022-12-05T05:29:36.206Z,20.20
2022-12-05T05:31:40.218Z,17.63
2022-12-05T05:33:42.514Z,18.10
2022-12-05T05:35:44.326Z,14.38
2022-12-05T05:37:46.494Z,19.42
2022-12-05T05:39:48.235Z,17.90
2022-12-05T05:41:50.065Z,18.42
2022-12-05T05:43:53.175Z,18.23
2022-12-05T05:45:55.073Z,18.70
2022-12-05T05:47:56.915Z,18.30
2022-12-05T05:49:59.306Z,17.77
2022-12-05T05:52:01.302Z,17.25
2022-12-05T05:54:03.179Z,18.35
2022-12-05T05:56:07.783Z,17.95
2022-12-05T05:58:09.706Z,17.80
2022-12-05T06:00:12.411Z,15.93
2022-12-05T06:04:16.265Z,16.80
2022-12-05T06:06:19.987Z,18.10
2022-12-05T06:08:22.207Z,18.55
2022-12-05T06:10:24.074Z,19.15
2022-12-05T06:12:25.920Z,19.20
2022-12-05T06:14:28.025Z,17.70
2022-12-05T06:16:31.292Z,19.20
2022-12-05T06:18:34.051Z,17.23
2022-12-05T06:22:37.850Z,19.10
2022-12-05T06:24:40.060Z,18.55
2022-12-05T06:26:42.166Z,18.95
2022-12-05T06:28:44.576Z,19.15
2022-12-05T06:30:47.235Z,19.58
2022-12-05T06:32:48.990Z,15.75
2022-12-05T06:34:50.741Z,20.45
2022-12-05T06:36:52.882Z,19.73
2022-12-05T06:38:54.636Z,19.77
2022-12-05T06:40:56.452Z,17.60
2022-12-05T06:42:58.672Z,18.42
2022-12-05T06:45:00.576Z,20.35
2022-12-05T06:47:02.689Z,19.85
2022-12-05T06:49:04.446Z,20.60
2022-12-05T06:51:10.033Z,19.05
2022-12-05T06:53:12.155Z,18.85
2022-12-05T06:55:13.970Z,20.77
2022-12-05T06:57:16.250Z,19.67
2022-12-05T06:59:18.141Z,20.92
2022-12-05T07:01:42.246Z,20.20
2022-12-05T07:03:44.774Z,21.20
2022-12-05T07:05:46.543Z,20.00
2022-12-05T07:07:48.602Z,21.25
2022-12-05T07:09:53.959Z,20.67
2022-12-05T07:11:55.753Z,20.30
2022-12-05T07:13:57.540Z,20.38
2022-12-05T07:16:00.257Z,20.50
2022-12-05T07:18:02.134Z,20.30
2022-12-05T07:20:04.987Z,20.75
2022-12-05T07:22:10.734Z,20.10
2022-12-05T07:24:17.053Z,20.80
2022-12-05T07:26:22.172Z,21.00
2022-12-05T07:28:25.023Z,20.95
2022-12-05T07:30:26.781Z,21.55
2022-12-05T07:32:33.423Z,20.25
2022-12-05T07:34:35.726Z,20.27
2022-12-05T07:36:37.669Z,22.13
2022-12-05T07:38:40.912Z,21.80
2022-12-05T07:40:43.066Z,21.10
2022-12-05T07:42:48.493Z,21.05
2022-12-05T07:44:50.285Z,20.50
2022-12-05T07:46:52.426Z,20.30
2022-12-05T07:48:55.001Z,21.30
2022-12-05T07:51:05.196Z,20.63
2022-12-05T07:53:07.328Z,22.33
2022-12-05T07:55:09.400Z,20.27
2022-12-05T07:57:11.560Z,21.40
2022-12-05T07:59:13.373Z,21.92
2022-12-05T08:01:21.459Z,20.63
2022-12-05T08:03:23.903Z,20.40
2022-12-05T08:05:25.689Z,15.80
2022-12-05T08:07:27.801Z,20.20
2022-12-05T08:09:29.682Z,21.33
2022-12-05T08:11:36.189Z,21.60
2022-12-05T08:13:38.269Z,20.85
2022-12-05T08:15:42.510Z,20.38
2022-12-05T08:17:44.653Z,17.15
2022-12-05T08:19:48.608Z,20.73
2022-12-05T08:21:52.486Z,21.42
2022-12-05T08:23:54.869Z,21.75
2022-12-05T08:25:56.790Z,21.95
2022-12-05T08:27:58.982Z,21.30
2022-12-05T08:30:00.930Z,20.90
2022-12-05T08:32:03.625Z,21.30
2022-12-05T08:34:05.902Z,21.67
2022-12-05T08:36:11.138Z,24.50
2022-12-05T08:38:13.290Z,21.17
2022-12-05T08:40:15.229Z,20.85
2022-12-05T08:42:17.443Z,21.95
2022-12-05T08:44:19.677Z,20.92
2022-12-05T08:46:21.922Z,20.15
2022-12-05T08:48:29.188Z,21.30
2022-12-05T08:50:33.573Z,21.27
2022-12-05T08:52:35.491Z,27.17
2022-12-05T08:54:37.771Z,28.13
2022-12-05T08:56:39.718Z,21.30
2022-12-05T08:58:41.911Z,21.07
2022-12-05T09:00:44.061Z,20.55
2022-12-05T09:02:52.114Z,21.95
2022-12-05T09:04:54.453Z,21.83
2022-12-05T09:06:56.858Z,22.15
2022-12-05T09:09:01.153Z,22.90
2022-12-05T09:11:21.348Z,22.88
2022-12-05T09:13:24.293Z,22.17
2022-12-05T09:15:26.532Z,21.92
2022-12-05T09:17:28.531Z,22.88
2022-12-05T09:19:31.128Z,23.70
2022-12-05T09:21:33.017Z,22.95
2022-12-05T09:23:35.728Z,22.80
2022-12-05T09:25:37.871Z,23.10
2022-12-05T09:27:39.890Z,21.50
2022-12-05T09:29:43.453Z,22.80
2022-12-05T09:31:47.711Z,22.05
2022-12-05T09:33:50.827Z,23.10
2022-12-05T09:35:53.185Z,22.55
2022-12-05T09:37:57.140Z,21.05
2022-12-05T09:39:58.989Z,20.92
2022-12-05T09:42:18.552Z,23.75
2022-12-05T09:44:58.363Z,22.38
2022-12-05T09:47:19.797Z,21.33
2022-12-05T09:49:24.852Z,20.73
2022-12-05T09:51:27.131Z,23.85
2022-12-05T09:53:34.716Z,22.83
2022-12-05T09:55:42.295Z,23.45
2022-12-05T09:57:54.026Z,22.33
2022-12-05T09:59:56.516Z,17.67
2022-12-05T10:02:24.338Z,21.67
2022-12-05T10:04:26.240Z,22.10
2022-12-05T10:06:37.870Z,21.55
2022-12-05T10:09:27.772Z,22.55
2022-12-05T10:11:39.201Z,22.60
2022-12-05T10:13:47.118Z,23.38
2022-12-05T10:15:57.578Z,23.38
2022-12-05T10:18:09.346Z,22.05
2022-12-05T10:20:18.641Z,21.45
2022-12-05T10:22:26.902Z,22.48
2022-12-05T10:24:33.923Z,23.33
2022-12-05T10:26:46.166Z,24.13
2022-12-05T10:29:33.954Z,23.65
2022-12-05T10:31:39.063Z,24.05
2022-12-05T10:33:47.428Z,24.23
2022-12-05T10:35:53.835Z,24.50
2022-12-05T10:38:00.265Z,25.38
2022-12-05T10:40:02.143Z,24.33
2022-12-05T10:42:05.316Z,25.05
2022-12-05T10:44:08.682Z,24.58
2022-12-05T10:46:17.411Z,24.80
2022-12-05T10:48:21.423Z,24.70
2022-12-05T10:50:23.584Z,25.75
2022-12-05T10:52:25.674Z,25.92
2022-12-05T10:54:39.252Z,26.02
2022-12-05T11:01:09.642Z,24.00
2022-12-05T11:03:32.390Z,24.55
2022-12-05T11:05:35.922Z,25.27
2022-12-05T11:07:48.571Z,25.27
2022-12-05T11:09:52.095Z,25.45
2022-12-05T11:12:00.601Z,24.67
2022-12-05T11:14:20.853Z,24.70
2022-12-05T11:16:25.583Z,23.88
2022-12-05T11:18:32.172Z,25.65
2022-12-05T11:20:39.385Z,23.23
2022-12-05T11:22:47.271Z,24.75
2022-12-05T11:24:50.453Z,24.73
2022-12-05T11:26:52.594Z,25.90
2022-12-05T11:28:55.261Z,25.67
2022-12-05T11:31:20.995Z,25.90
2022-12-05T11:33:25.932Z,24.95
2022-12-05T11:35:28.915Z,24.27
2022-12-05T11:39:41.039Z,25.38
2022-12-05T11:42:13.412Z,38.83
2022-12-05T11:44:55.700Z,25.17
2022-12-05T11:47:21.190Z,24.50
2022-12-05T11:49:41.780Z,24.38
2022-12-05T11:52:05.622Z,25.42
2022-12-05T11:54:22.586Z,23.88
2022-12-05T11:57:03.888Z,24.20
2022-12-05T11:59:32.300Z,25.67
2022-12-05T12:01:48.381Z,24.38
2022-12-05T12:04:02.632Z,26.42
2022-12-05T12:06:31.463Z,25.35
2022-12-05T12:08:48.614Z,27.13
2022-12-05T12:11:11.408Z,25.55
2022-12-05T12:13:29.579Z,25.58
2022-12-05T12:16:08.944Z,26.58
2022-12-05T12:18:32.514Z,27.08
2022-12-05T12:20:37.169Z,26.33
2022-12-05T12:22:54.022Z,26.45
2022-12-05T12:25:03.333Z,27.02
2022-12-05T12:27:42.089Z,26.65
2022-12-05T12:30:02.323Z,25.38
2022-12-05T12:32:30.624Z,25.88
2022-12-05T12:34:38.839Z,26.17
2022-12-05T12:36:55.415Z,25.95
2022-12-05T12:39:08.389Z,27.55
2022-12-05T12:41:21.945Z,27.55
2022-12-05T12:46:39.182Z,25.58
2022-12-05T12:48:40.989Z,26.83
2022-12-05T12:50:47.193Z,25.60
2022-12-05T12:53:07.007Z,24.50
2022-12-05T12:56:02.595Z,24.40
2022-12-05T12:58:11.951Z,24.98
2022-12-05T13:00:29.688Z,26.83
2022-12-05T13:02:49.752Z,27.20
2022-12-05T13:05:01.097Z,27.38
2022-12-05T13:07:19.149Z,25.60
2022-12-05T13:09:34.022Z,25.60
2022-12-05T13:11:40.227Z,26.38
2022-12-05T13:13:58.786Z,26.70
2022-12-05T13:16:06.171Z,26.63
2022-12-05T13:18:18.435Z,26.13
2022-12-05T13:20:25.395Z,26.98
2022-12-05T13:22:28.736Z,26.23
2022-12-05T13:26:36.832Z,26.45
2022-12-05T13:28:54.803Z,27.55
2022-12-05T13:30:58.564Z,27.20
2022-12-05T13:33:07.190Z,25.92
2022-12-05T13:35:17.228Z,28.27
2022-12-05T13:37:40.695Z,28.75
2022-12-05T13:40:09.034Z,25.95
2022-12-05T13:42:29.261Z,28.48
2022-12-05T13:44:38.767Z,26.58
2022-12-05T13:46:43.467Z,27.95
2022-12-05T13:48:49.802Z,34.67
2022-12-05T13:50:57.703Z,29.90
2022-12-05T13:53:05.797Z,32.95
2022-12-05T13:55:38.299Z,32.58
2022-12-05T13:57:40.274Z,28.60
2022-12-05T14:00:01.679Z,28.02
2022-12-05T14:02:42.010Z,26.98
2022-12-05T14:04:50.910Z,27.17
2022-12-05T14:06:52.851Z,29.05
2022-12-05T14:08:55.324Z,29.65
2022-12-05T14:10:57.152Z,27.50
2022-12-05T14:13:01.258Z,28.10
2022-12-05T14:15:04.221Z,26.92
2022-12-05T14:17:08.246Z,28.10
2022-12-05T14:19:34.700Z,27.88
2022-12-05T14:21:53.168Z,27.25
2022-12-05T14:24:26.391Z,26.80
2022-12-05T14:27:16.710Z,28.73
2022-12-05T14:29:39.568Z,27.35
2022-12-05T14:31:43.237Z,27.35
2022-12-05T14:33:45.665Z,27.38
2022-12-05T14:35:53.355Z,26.63
2022-12-05T14:37:59.667Z,26.40
2022-12-05T14:40:23.532Z,28.17
2022-12-05T14:43:00.995Z,27.60
2022-12-05T14:45:24.377Z,27.38
2022-12-05T14:47:32.736Z,25.73
2022-12-05T14:49:52.530Z,27.27
2022-12-05T14:51:58.071Z,27.67
2022-12-05T14:54:12.187Z,27.95
2022-12-05T14:56:27.653Z,27.52
2022-12-05T14:58:35.974Z,28.15
2022-12-05T15:00:42.655Z,27.02
2022-12-05T15:02:52.095Z,29.25
2022-12-05T15:05:14.859Z,29.83
2022-12-05T15:07:23.059Z,28.73
2022-12-05T15:09:56.939Z,28.48
2022-12-05T15:14:08.237Z,27.70
2022-12-05T15:16:19.539Z,27.05
2022-12-05T15:18:29.250Z,29.00
2022-12-05T15:20:43.815Z,30.40
2022-12-05T15:22:45.748Z,28.95
2022-12-05T15:24:48.054Z,28.20
2022-12-05T15:26:58.578Z,29.48
2022-12-05T15:29:02.442Z,29.65
2022-12-05T15:31:04.844Z,28.83
2022-12-05T15:33:12.798Z,29.90
2022-12-05T15:35:16.232Z,28.85
2022-12-05T15:37:55.810Z,29.05
2022-12-05T15:39:59.423Z,28.45
2022-12-05T15:42:01.633Z,29.17
2022-12-05T15:44:05.215Z,29.25
2022-12-05T15:46:27.585Z,29.60
2022-12-05T15:48:30.459Z,29.00
2022-12-05T15:50:42.711Z,29.98
2022-12-05T15:52:51.418Z,29.30
2022-12-05T15:54:54.568Z,29.10
2022-12-05T15:57:17.244Z,30.55
2022-12-05T15:59:28.956Z,30.92
2022-12-05T16:01:35.125Z,31.10
2022-12-05T16:03:42.513Z,29.90
2022-12-05T16:05:57.244Z,31.23
2022-12-05T16:08:02.940Z,32.10
2022-12-05T16:10:05.825Z,30.70
2022-12-05T16:12:33.873Z,30.80
2022-12-05T16:17:04.569Z,32.33
2022-12-05T16:19:18.323Z,30.52
2022-12-05T16:21:38.800Z,33.10
2022-12-05T16:23:44.531Z,33.35
2022-12-05T16:25:46.349Z,31.65
2022-12-05T16:28:19.050Z,30.48
2022-12-05T16:30:22.784Z,31.75
2022-12-05T16:32:25.719Z,33.25
2022-12-05T16:34:32.018Z,31.58
2022-12-05T16:36:35.066Z,33.63
2022-12-05T16:38:37.762Z,31.77
2022-12-05T16:40:51.209Z,31.83
2022-12-05T16:43:05.451Z,33.45
2022-12-05T16:45:44.561Z,33.03
2022-12-05T16:47:53.153Z,31.17
2022-12-05T16:49:55.168Z,32.55
2022-12-05T16:52:03.240Z,31.90
2022-12-05T16:54:05.474Z,32.05
2022-12-05T16:56:13.605Z,33.67
2022-12-05T16:58:30.078Z,31.92
2022-12-05T17:00:36.847Z,33.75
2022-12-05T17:02:38.662Z,30.92
2022-12-05T17:04:41.114Z,29.63
2022-12-05T17:06:43.352Z,32.35
2022-12-05T17:08:45.201Z,33.05
2022-12-05T17:10:49.180Z,29.92
2022-12-05T17:12:51.610Z,30.85
2022-12-05T17:14:53.638Z,31.88
2022-12-05T17:16:55.803Z,32.38
2022-12-05T17:18:57.682Z,31.58
2022-12-05T17:21:01.715Z,31.98
2022-12-05T17:23:04.623Z,31.77
2022-12-05T17:25:28.742Z,31.92
2022-12-05T17:27:31.033Z,30.50
2022-12-05T17:29:35.845Z,31.73
2022-12-05T17:31:39.105Z,29.83
2022-12-05T17:33:41.072Z,32.58
2022-12-05T17:35:47.262Z,30.45
2022-12-05T17:37:51.878Z,30.58
2022-12-05T17:39:53.795Z,31.77
2022-12-05T17:41:56.308Z,29.08
2022-12-05T17:43:58.738Z,28.77
2022-12-05T17:46:01.163Z,30.60
2022-12-05T17:48:03.498Z,29.95
2022-12-05T17:50:06.806Z,31.42
2022-12-05T17:52:24.832Z,29.90
2022-12-05T17:54:27.062Z,29.02
2022-12-05T17:56:28.885Z,29.65
2022-12-05T17:58:30.737Z,30.15
2022-12-05T18:00:32.951Z,30.92
2022-12-05T18:02:34.854Z,30.58
2022-12-05T18:04:37.119Z,28.52
2022-12-05T18:06:39.555Z,30.42
2022-12-05T18:08:43.994Z,28.73
2022-12-05T18:10:48.968Z,30.27
2022-12-05T18:12:51.417Z,29.67
2022-12-05T18:14:53.326Z,30.77
2022-12-05T18:16:55.228Z,29.67
2022-12-05T18:18:57.420Z,29.63
2022-12-05T18:21:10.946Z,30.73
2022-12-05T18:23:13.917Z,29.88
2022-12-05T18:25:16.019Z,30.35
2022-12-05T18:27:18.798Z,29.97
2022-12-05T18:29:20.984Z,29.98
2022-12-05T18:31:23.269Z,30.17
2022-12-05T18:33:25.580Z,29.52
2022-12-05T18:35:42.748Z,30.48
2022-12-05T18:37:44.650Z,29.35
2022-12-05T18:39:46.991Z,30.20
2022-12-05T18:41:48.804Z,30.13
2022-12-05T18:43:52.288Z,30.10
2022-12-05T18:45:59.171Z,30.52
2022-12-05T18:48:16.294Z,30.92
2022-12-05T18:50:23.271Z,30.45
2022-12-05T18:52:25.122Z,29.13
2022-12-05T18:54:27.346Z,31.30
2022-12-05T18:56:34.764Z,31.98
2022-12-05T18:58:37.551Z,31.38
2022-12-05T19:00:39.826Z,30.73
2022-12-05T19:02:41.966Z,31.58
2022-12-05T19:04:44.218Z,32.05
2022-12-05T19:06:52.990Z,31.15
2022-12-05T19:08:56.982Z,32.63
2022-12-05T19:11:04.911Z,32.45
2022-12-05T19:13:07.314Z,33.22
2022-12-05T19:15:09.696Z,32.33
2022-12-05T19:17:11.962Z,33.00
2022-12-05T19:19:14.745Z,32.15
2022-12-05T19:21:17.001Z,31.48
2022-12-05T19:23:20.471Z,33.10
2022-12-05T19:25:22.311Z,32.10
2022-12-05T19:27:24.559Z,31.75
2022-12-05T19:29:26.450Z,32.83
2022-12-05T19:31:29.441Z,34.17
2022-12-05T19:33:36.891Z,31.30
2022-12-05T19:35:38.718Z,32.38
2022-12-05T19:37:40.651Z,34.55
2022-12-05T19:39:43.398Z,32.55
2022-12-05T19:41:46.102Z,33.28
2022-12-05T19:43:48.091Z,33.15
2022-12-05T19:45:52.156Z,33.20
2022-12-05T19:47:55.382Z,31.67
2022-12-05T19:50:01.257Z,33.47
2022-12-05T19:52:03.379Z,33.33
2022-12-05T19:54:07.273Z,33.60
2022-12-05T19:56:16.465Z,36.05
2022-12-05T19:58:19.058Z,32.95
2022-12-05T20:00:21.612Z,32.85
2022-12-05T20:02:25.311Z,33.13
2022-12-05T20:04:28.806Z,33.50
2022-12-05T20:08:37.389Z,32.17
2022-12-05T20:10:39.738Z,34.63
2022-12-05T20:12:42.846Z,32.88
2022-12-05T20:14:45.513Z,33.55
2022-12-05T20:16:47.730Z,25.98
2022-12-05T20:18:50.386Z,34.28
2022-12-05T20:20:59.827Z,33.45
2022-12-05T20:23:01.908Z,33.60
2022-12-05T20:25:04.478Z,33.83
2022-12-05T20:27:07.337Z,34.47
2022-12-05T20:29:09.712Z,32.58
2022-12-05T20:31:15.199Z,33.33
2022-12-05T20:33:17.198Z,33.17
2022-12-05T20:35:24.018Z,34.80
2022-12-05T20:37:28.768Z,34.17
2022-12-05T20:39:33.726Z,36.00
2022-12-05T20:41:35.757Z,34.67
2022-12-05T20:43:38.031Z,34.20
2022-12-05T20:45:40.363Z,34.05
2022-12-05T20:47:42.188Z,33.97
2022-12-05T20:49:44.463Z,34.78
2022-12-05T20:51:47.312Z,32.85
2022-12-05T20:53:49.610Z,34.42
2022-12-05T20:55:51.785Z,35.67
2022-12-05T20:57:53.544Z,36.30
2022-12-05T20:59:55.906Z,36.88
2022-12-05T21:01:57.871Z,36.15
2022-12-05T21:04:01.327Z,37.42
2022-12-05T21:06:10.213Z,33.90
2022-12-05T21:08:14.665Z,35.17
2022-12-05T21:10:17.113Z,35.50
2022-12-05T21:12:18.970Z,36.13
2022-12-05T21:14:21.202Z,36.75
2022-12-05T21:16:23.703Z,35.75
2022-12-05T21:18:25.819Z,35.65
2022-12-05T21:20:28.770Z,36.47
2022-12-05T21:22:30.898Z,34.88
2022-12-05T21:24:33.216Z,36.55
2022-12-05T21:26:39.036Z,35.30
2022-12-05T21:28:42.810Z,35.72
2022-12-05T21:30:45.084Z,36.08
2022-12-05T21:32:48.555Z,34.35
2022-12-05T21:34:50.711Z,35.15
2022-12-05T21:36:52.583Z,34.55
2022-12-05T21:38:56.533Z,35.83
2022-12-05T21:40:58.815Z,35.60
2022-12-05T21:43:00.570Z,28.27
2022-12-05T21:45:02.881Z,35.95
2022-12-05T21:47:05.834Z,35.80
2022-12-05T21:49:09.194Z,36.28
2022-12-05T21:53:13.577Z,33.35
2022-12-05T21:55:16.262Z,35.05
2022-12-05T21:57:18.567Z,34.10
2022-12-05T21:59:20.747Z,34.65
2022-12-05T22:01:26.005Z,35.42
2022-12-05T22:03:28.188Z,35.78
2022-12-05T22:05:30.471Z,34.45
2022-12-05T22:07:32.308Z,34.72
2022-12-05T22:09:34.598Z,35.20
2022-12-05T22:11:36.654Z,35.83
2022-12-05T22:13:38.761Z,36.50
2022-12-05T22:15:41.187Z,36.22
2022-12-05T22:17:43.048Z,35.78
2022-12-05T22:19:46.327Z,36.35
2022-12-05T22:23:50.627Z,34.45
2022-12-05T22:26:00.480Z,35.47
2022-12-05T22:28:02.339Z,35.85
2022-12-05T22:30:05.502Z,34.03
2022-12-05T22:32:07.387Z,34.75
2022-12-05T22:34:09.519Z,35.58
2022-12-05T22:36:13.318Z,35.95
2022-12-05T22:38:19.597Z,36.05
2022-12-05T22:40:21.750Z,36.63
2022-12-05T22:42:23.565Z,36.80
2022-12-05T22:44:25.722Z,36.95
2022-12-05T22:46:29.014Z,35.95
2022-12-05T22:48:30.982Z,36.80
2022-12-05T22:50:35.842Z,35.17
2022-12-05T22:52:37.679Z,35.60
2022-12-05T22:54:39.776Z,35.45
2022-12-05T22:56:41.541Z,35.42
2022-12-05T22:58:44.820Z,34.33
2022-12-05T23:02:48.371Z,35.50
2022-12-05T23:04:50.631Z,34.15
2022-12-05T23:06:52.399Z,34.80
2022-12-05T23:08:54.822Z,35.50
2022-12-05T23:10:58.477Z,34.63
2022-12-05T23:13:00.277Z,34.55
2022-12-05T23:15:02.113Z,36.55
2022-12-05T23:17:04.263Z,33.40
2022-12-05T23:19:06.266Z,35.95
2022-12-05T23:21:08.066Z,35.30
2022-12-05T23:23:10.290Z,34.80
2022-12-05T23:25:12.133Z,34.63
2022-12-05T23:27:13.899Z,36.25
2022-12-05T23:29:16.225Z,35.63
2022-12-05T23:31:18.704Z,35.53
2022-12-05T23:33:20.497Z,35.03
2022-12-05T23:35:22.754Z,34.73
2022-12-05T23:37:24.694Z,35.30
2022-12-05T23:39:26.835Z,36.05
2022-12-05T23:41:28.739Z,35.00
2022-12-05T23:43:32.517Z,34.75
2022-12-05T23:45:34.638Z,34.83
2022-12-05T23:47:36.521Z,34.92
2022-12-05T23:49:38.639Z,35.75
2022-12-05T23:51:40.606Z,35.30
2022-12-05T23:53:44.472Z,34.33
2022-12-05T23:55:46.605Z,35.67
2022-12-05T23:57:48.383Z,33.92
2022-12-05T23:59:50.641Z,35.75
